createdAt,value
2018-09-30T00:01:23.166Z,8.80
2018-09-30T00:03:49.855Z,8.80
2018-09-30T00:06:16.558Z,8.80
2018-09-30T00:08:43.449Z,8.80
2018-09-30T00:11:10.145Z,8.90
2018-09-30T00:13:36.897Z,9.00
2018-09-30T00:16:03.658Z,9.00
2018-09-30T00:18:30.379Z,9.10
2018-09-30T00:20:57.175Z,9.10
2018-09-30T00:23:23.950Z,9.20
2018-09-30T00:28:45.524Z,9.20
2018-09-30T00:31:13.196Z,9.10
2018-09-30T00:33:39.969Z,9.10
2018-09-30T00:36:07.485Z,9.20
2018-09-30T00:38:34.200Z,9.20
2018-09-30T00:41:00.947Z,9.20
2018-09-30T00:43:27.746Z,9.20
2018-09-30T00:45:55.153Z,9.20
2018-09-30T00:48:21.950Z,9.20
2018-09-30T00:50:48.649Z,9.30
2018-09-30T00:53:15.350Z,9.20
2018-09-30T00:55:42.058Z,9.30
2018-09-30T00:58:08.780Z,9.30
2018-09-30T01:00:35.552Z,9.20
2018-09-30T01:03:03.070Z,9.30
2018-09-30T01:05:29.924Z,9.30
2018-09-30T01:07:56.633Z,9.30
2018-09-30T01:10:24.282Z,9.30
2018-09-30T01:12:50.983Z,9.40
2018-09-30T01:15:17.753Z,9.30
2018-09-30T01:17:44.764Z,9.30
2018-09-30T01:20:11.479Z,9.30
2018-09-30T01:22:38.257Z,9.30
2018-09-30T01:25:05.085Z,9.20
2018-09-30T01:27:31.777Z,9.20
2018-09-30T01:29:58.500Z,9.20
2018-09-30T01:32:25.243Z,9.10
2018-09-30T01:34:51.970Z,9.10
2018-09-30T01:37:19.394Z,9.10
2018-09-30T01:39:46.319Z,9.10
2018-09-30T01:42:13.367Z,9.20
2018-09-30T01:44:40.315Z,9.10
2018-09-30T01:47:07.086Z,9.20
2018-09-30T01:49:33.925Z,9.00
2018-09-30T01:52:01.033Z,9.10
2018-09-30T01:54:27.847Z,9.10
2018-09-30T01:56:55.307Z,9.00
2018-09-30T01:59:22.069Z,9.00
2018-09-30T02:01:48.818Z,9.10
2018-09-30T02:04:15.579Z,9.00
2018-09-30T02:06:42.425Z,9.10
2018-09-30T02:09:09.153Z,9.10
2018-09-30T02:11:36.662Z,9.10
2018-09-30T02:14:03.474Z,9.10
2018-09-30T02:16:30.189Z,9.10
2018-09-30T02:18:57.657Z,8.90
2018-09-30T02:21:24.400Z,8.90
2018-09-30T02:23:51.184Z,9.00
2018-09-30T02:26:18.633Z,8.80
2018-09-30T02:28:46.135Z,8.70
2018-09-30T02:31:12.883Z,8.60
2018-09-30T02:33:39.630Z,8.60
2018-09-30T02:36:06.296Z,8.60
2018-09-30T02:38:33.112Z,8.60
2018-09-30T02:40:59.989Z,8.60
2018-09-30T02:43:26.660Z,8.60
2018-09-30T02:45:53.421Z,8.60
2018-09-30T02:48:20.247Z,8.60
2018-09-30T02:50:47.033Z,8.70
2018-09-30T02:53:14.741Z,8.70
2018-09-30T02:55:42.185Z,8.70
2018-09-30T02:58:09.670Z,8.80
2018-09-30T03:00:36.456Z,8.80
2018-09-30T03:03:04.075Z,8.90
2018-09-30T03:05:30.790Z,8.80
2018-09-30T03:08:04.280Z,8.90
2018-09-30T03:10:31.699Z,9.00
2018-09-30T03:12:58.404Z,9.00
2018-09-30T03:15:25.194Z,9.00
2018-09-30T03:17:51.905Z,9.00
2018-09-30T03:20:18.578Z,9.00
2018-09-30T03:22:45.340Z,9.10
2018-09-30T03:25:12.050Z,9.00
2018-09-30T03:27:38.852Z,9.00
2018-09-30T03:30:05.651Z,9.10
2018-09-30T03:32:32.303Z,9.10
2018-09-30T03:34:59.097Z,9.20
2018-09-30T03:37:25.785Z,9.10
2018-09-30T03:39:52.496Z,9.10
2018-09-30T03:42:19.265Z,9.00
2018-09-30T03:44:46.703Z,9.00
2018-09-30T03:47:13.428Z,8.90
2018-09-30T03:49:40.236Z,8.90
2018-09-30T03:52:06.919Z,8.90
2018-09-30T03:54:33.608Z,8.90
2018-09-30T03:57:00.364Z,8.90
2018-09-30T03:59:27.035Z,8.90
2018-09-30T04:01:53.787Z,8.90
2018-09-30T04:04:21.300Z,8.90
2018-09-30T04:06:48.026Z,8.80
2018-09-30T04:09:14.752Z,8.90
2018-09-30T04:11:41.445Z,8.90
2018-09-30T04:14:09.736Z,9.00
2018-09-30T04:16:36.529Z,9.00
2018-09-30T04:19:03.200Z,9.00
2018-09-30T04:21:29.888Z,8.90
2018-09-30T04:23:59.784Z,9.00
2018-09-30T04:26:26.647Z,9.00
2018-09-30T04:28:54.069Z,8.90
2018-09-30T04:31:20.789Z,8.80
2018-09-30T04:33:47.528Z,8.80
2018-09-30T04:36:15.073Z,8.90
2018-09-30T04:38:41.791Z,8.80
2018-09-30T04:41:08.496Z,8.80
2018-09-30T04:43:35.971Z,8.80
2018-09-30T04:46:03.441Z,9.00
2018-09-30T04:48:30.144Z,8.90
2018-09-30T04:50:56.934Z,9.00
2018-09-30T04:53:23.661Z,9.10
2018-09-30T04:55:50.313Z,9.10
2018-09-30T04:58:17.018Z,9.20
2018-09-30T05:00:43.805Z,9.20
2018-09-30T05:03:10.606Z,9.30
2018-09-30T05:05:38.278Z,9.20
2018-09-30T05:08:05.187Z,9.20
2018-09-30T05:10:31.951Z,9.20
2018-09-30T05:12:58.614Z,9.20
2018-09-30T05:15:25.288Z,9.30
2018-09-30T05:17:52.854Z,9.30
2018-09-30T05:20:20.434Z,9.30
2018-09-30T05:22:47.257Z,9.30
2018-09-30T05:25:13.940Z,9.30
2018-09-30T05:27:40.715Z,9.30
2018-09-30T05:30:08.552Z,9.30
2018-09-30T05:32:35.566Z,9.30
2018-09-30T05:35:02.304Z,9.40
2018-09-30T05:37:29.074Z,9.50
2018-09-30T05:39:56.600Z,9.50
2018-09-30T05:42:23.429Z,9.50
2018-09-30T05:44:50.921Z,9.70
2018-09-30T05:47:18.633Z,9.70
2018-09-30T05:49:45.392Z,9.70
2018-09-30T05:52:12.114Z,9.80
2018-09-30T05:54:38.866Z,9.80
2018-09-30T05:57:05.559Z,9.80
2018-09-30T05:59:32.320Z,10.00
2018-09-30T06:01:59.370Z,10.10
2018-09-30T06:04:26.150Z,10.10
2018-09-30T06:06:53.619Z,10.20
2018-09-30T06:09:20.538Z,10.20
2018-09-30T06:11:47.232Z,10.30
2018-09-30T06:14:14.835Z,10.40
2018-09-30T06:16:41.482Z,10.30
2018-09-30T06:19:08.328Z,10.40
2018-09-30T06:21:35.046Z,10.60
2018-09-30T06:24:01.961Z,10.60
2018-09-30T06:26:29.400Z,10.60
2018-09-30T06:28:57.808Z,10.60
2018-09-30T06:31:26.699Z,10.60
2018-09-30T06:33:53.806Z,10.60
2018-09-30T06:36:21.574Z,10.70
2018-09-30T06:38:48.826Z,10.60
2018-09-30T06:41:15.867Z,10.60
2018-09-30T06:43:43.453Z,10.40
2018-09-30T06:46:10.315Z,10.40
2018-09-30T06:48:37.031Z,10.40
2018-09-30T06:51:04.604Z,10.50
2018-09-30T06:53:31.358Z,10.50
2018-09-30T06:55:58.135Z,10.60
2018-09-30T06:58:25.797Z,10.70
2018-09-30T07:00:52.500Z,10.70
2018-09-30T07:03:19.706Z,10.80
2018-09-30T07:05:46.409Z,11.00
2018-09-30T07:08:13.925Z,11.10
2018-09-30T07:10:41.465Z,11.10
2018-09-30T07:13:08.263Z,11.10
2018-09-30T07:15:35.016Z,11.30
2018-09-30T07:18:01.712Z,11.20
2018-09-30T07:20:29.161Z,11.20
2018-09-30T07:22:56.587Z,11.10
2018-09-30T07:25:23.733Z,11.10
2018-09-30T07:27:51.339Z,11.20
2018-09-30T07:30:18.767Z,11.20
2018-09-30T07:32:46.233Z,11.30
2018-09-30T07:35:13.991Z,11.30
2018-09-30T07:37:41.425Z,11.30
2018-09-30T07:40:08.940Z,11.50
2018-09-30T07:42:35.650Z,11.40
2018-09-30T07:45:02.601Z,11.40
2018-09-30T07:47:30.142Z,11.50
2018-09-30T07:49:56.829Z,11.50
2018-09-30T07:52:23.632Z,11.50
2018-09-30T07:54:50.542Z,11.40
2018-09-30T07:57:17.274Z,11.40
2018-09-30T07:59:44.011Z,11.40
2018-09-30T08:02:10.975Z,11.70
2018-09-30T08:04:37.722Z,11.80
2018-09-30T08:07:04.507Z,11.90
2018-09-30T08:09:31.909Z,12.00
2018-09-30T08:11:58.630Z,12.00
2018-09-30T08:14:25.447Z,12.20
2018-09-30T08:16:52.201Z,12.40
2018-09-30T08:19:19.591Z,12.20
2018-09-30T08:21:46.322Z,12.20
2018-09-30T08:24:13.035Z,12.30
2018-09-30T08:26:39.882Z,12.10
2018-09-30T08:29:06.672Z,12.20
2018-09-30T08:31:33.575Z,12.40
2018-09-30T08:34:00.319Z,12.50
2018-09-30T08:36:27.207Z,12.80
2018-09-30T08:38:53.972Z,13.00
2018-09-30T08:41:20.752Z,13.10
2018-09-30T08:43:47.511Z,13.00
2018-09-30T08:46:14.291Z,12.90
2018-09-30T08:48:42.083Z,13.10
2018-09-30T08:51:08.850Z,13.10
2018-09-30T08:53:35.707Z,13.00
2018-09-30T08:56:02.497Z,12.90
2018-09-30T08:58:29.924Z,13.10
2018-09-30T09:00:56.645Z,13.10
2018-09-30T09:03:23.347Z,13.30
2018-09-30T09:05:50.219Z,13.20
2018-09-30T09:08:17.199Z,13.20
2018-09-30T09:10:44.226Z,13.20
2018-09-30T09:13:11.970Z,13.10
2018-09-30T09:15:40.018Z,12.80
2018-09-30T09:18:09.853Z,12.70
2018-09-30T09:20:37.152Z,12.70
2018-09-30T09:23:04.491Z,12.70
2018-09-30T09:25:31.999Z,12.70
2018-09-30T09:28:00.444Z,12.60
2018-09-30T09:30:28.994Z,12.60
2018-09-30T09:32:58.013Z,12.70
2018-09-30T09:35:25.916Z,12.60
2018-09-30T09:37:53.147Z,12.50
2018-09-30T09:40:20.500Z,12.40
2018-09-30T09:42:49.130Z,12.40
2018-09-30T09:45:17.802Z,12.60
2018-09-30T09:47:45.206Z,12.40
2018-09-30T09:50:13.648Z,12.40
2018-09-30T09:52:42.320Z,12.30
2018-09-30T09:55:10.522Z,12.30
2018-09-30T09:57:38.685Z,12.40
2018-09-30T10:00:06.720Z,12.30
2018-09-30T10:02:35.938Z,12.20
2018-09-30T10:05:03.389Z,12.20
2018-09-30T10:07:30.401Z,12.30
2018-09-30T10:09:57.366Z,12.40
2018-09-30T10:12:24.677Z,12.40
2018-09-30T10:14:52.718Z,12.90
2018-09-30T10:17:20.184Z,12.80
2018-09-30T10:20:02.980Z,13.00
2018-09-30T10:22:30.896Z,13.30
2018-09-30T10:24:58.133Z,13.50
2018-09-30T10:27:26.049Z,13.90
2018-09-30T10:29:53.693Z,13.90
2018-09-30T10:32:21.041Z,13.90
2018-09-30T10:34:48.521Z,14.10
2018-09-30T10:37:16.016Z,14.10
2018-09-30T10:39:44.116Z,14.30
2018-09-30T10:42:11.412Z,14.10
2018-09-30T10:44:39.178Z,14.00
2018-09-30T10:47:06.294Z,13.90
2018-09-30T10:49:34.567Z,13.90
2018-09-30T10:52:01.582Z,13.80
2018-09-30T10:54:29.568Z,14.10
2018-09-30T10:56:57.564Z,14.20
2018-09-30T10:59:24.614Z,14.10
2018-09-30T11:01:52.633Z,14.10
2018-09-30T11:04:35.138Z,14.00
2018-09-30T11:07:01.987Z,14.50
2018-09-30T11:09:28.982Z,14.50
2018-09-30T11:11:55.883Z,14.60
2018-09-30T11:14:22.655Z,14.60
2018-09-30T11:16:49.411Z,14.40
2018-09-30T11:19:16.106Z,14.50
2018-09-30T11:21:42.817Z,14.50
2018-09-30T11:24:10.569Z,14.40
2018-09-30T11:26:37.634Z,14.30
2018-09-30T11:29:04.521Z,13.90
2018-09-30T11:31:31.260Z,13.70
2018-09-30T11:33:58.119Z,13.70
2018-09-30T11:36:26.391Z,13.70
2018-09-30T11:38:53.461Z,14.10
2018-09-30T11:41:20.575Z,14.00
2018-09-30T11:43:47.853Z,14.10
2018-09-30T11:46:15.231Z,14.10
2018-09-30T11:48:41.900Z,14.20
2018-09-30T11:51:08.673Z,14.00
2018-09-30T11:53:35.466Z,14.10
2018-09-30T11:56:03.074Z,14.10
2018-09-30T11:58:30.100Z,14.10
2018-09-30T12:00:56.791Z,14.20
2018-09-30T12:03:23.690Z,14.30
2018-09-30T12:05:50.941Z,14.40
2018-09-30T12:08:18.129Z,14.30
2018-09-30T12:10:44.861Z,14.50
2018-09-30T12:13:11.581Z,14.30
2018-09-30T12:15:38.895Z,14.00
2018-09-30T12:18:06.704Z,14.10
2018-09-30T12:20:33.381Z,14.10
2018-09-30T12:23:00.236Z,14.10
2018-09-30T12:25:27.126Z,14.20
2018-09-30T12:27:53.872Z,14.20
2018-09-30T12:30:20.779Z,14.10
2018-09-30T12:32:48.283Z,14.40
2018-09-30T12:35:15.417Z,14.30
2018-09-30T12:37:43.371Z,14.60
2018-09-30T12:40:10.567Z,14.60
2018-09-30T12:42:37.986Z,14.80
2018-09-30T12:45:04.885Z,15.00
2018-09-30T12:47:32.473Z,15.10
2018-09-30T12:49:59.162Z,15.00
2018-09-30T12:52:26.588Z,14.80
2018-09-30T12:54:53.464Z,14.80
2018-09-30T12:57:20.321Z,14.50
2018-09-30T12:59:47.804Z,14.60
2018-09-30T13:02:14.543Z,14.60
2018-09-30T13:04:41.288Z,14.60
2018-09-30T13:07:08.884Z,14.60
2018-09-30T13:09:35.572Z,14.60
2018-09-30T13:12:03.127Z,14.40
2018-09-30T13:14:30.972Z,14.30
2018-09-30T13:16:57.757Z,14.30
2018-09-30T13:19:24.859Z,14.30
2018-09-30T13:21:51.756Z,14.40
2018-09-30T13:24:19.018Z,14.60
2018-09-30T13:26:46.506Z,14.70
2018-09-30T13:29:13.222Z,14.60
2018-09-30T13:31:40.553Z,14.50
2018-09-30T13:34:07.587Z,14.30
2018-09-30T13:36:34.587Z,14.20
2018-09-30T13:39:01.330Z,14.20
2018-09-30T13:41:28.147Z,14.40
2018-09-30T13:43:55.797Z,14.50
2018-09-30T13:46:22.496Z,14.50
2018-09-30T13:48:49.532Z,14.80
2018-09-30T13:51:17.298Z,14.90
2018-09-30T13:53:44.247Z,14.90
2018-09-30T13:56:11.179Z,14.80
2018-09-30T13:58:38.035Z,14.70
2018-09-30T14:01:04.733Z,14.70
2018-09-30T14:03:31.520Z,14.60
2018-09-30T14:05:58.253Z,14.50
2018-09-30T14:08:25.432Z,14.40
2018-09-30T14:10:52.460Z,14.40
2018-09-30T14:13:19.991Z,14.10
2018-09-30T14:15:46.730Z,14.00
2018-09-30T14:18:13.531Z,14.10
2018-09-30T14:20:40.283Z,14.00
2018-09-30T14:23:07.170Z,14.10
2018-09-30T14:25:33.888Z,14.00
2018-09-30T14:28:00.654Z,13.90
2018-09-30T14:30:27.387Z,13.90
2018-09-30T14:32:54.253Z,13.90
2018-09-30T14:35:21.144Z,13.80
2018-09-30T14:37:47.916Z,13.80
2018-09-30T14:40:14.662Z,13.70
2018-09-30T14:42:41.351Z,13.60
2018-09-30T14:45:08.425Z,13.50
2018-09-30T14:47:36.165Z,13.50
2018-09-30T14:50:03.102Z,13.50
2018-09-30T14:52:29.850Z,13.50
2018-09-30T14:54:56.615Z,13.60
2018-09-30T14:57:24.148Z,13.40
2018-09-30T14:59:51.528Z,13.40
2018-09-30T15:02:18.568Z,13.20
2018-09-30T15:04:45.470Z,13.10
2018-09-30T15:07:12.981Z,12.90
2018-09-30T15:09:40.470Z,12.70
2018-09-30T15:12:07.443Z,12.70
2018-09-30T15:14:34.870Z,12.60
2018-09-30T15:17:01.576Z,12.60
2018-09-30T15:19:29.202Z,12.60
2018-09-30T15:21:56.609Z,12.60
2018-09-30T15:24:24.142Z,12.60
2018-09-30T15:26:50.903Z,12.60
2018-09-30T15:29:19.861Z,12.60
2018-09-30T15:31:46.810Z,12.60
2018-09-30T15:34:13.839Z,12.70
2018-09-30T15:36:41.210Z,12.80
2018-09-30T15:39:07.983Z,12.60
2018-09-30T15:41:35.107Z,12.50
2018-09-30T15:44:02.005Z,12.20
2018-09-30T15:46:28.843Z,12.10
2018-09-30T15:48:55.696Z,11.70
2018-09-30T15:51:22.570Z,11.50
2018-09-30T15:53:49.693Z,11.20
2018-09-30T15:56:17.248Z,11.00
2018-09-30T15:58:45.381Z,10.80
2018-09-30T16:01:12.068Z,10.80
2018-09-30T16:03:39.753Z,10.40
2018-09-30T16:06:06.570Z,10.40
2018-09-30T16:08:34.002Z,10.30
2018-09-30T16:11:00.813Z,10.30
2018-09-30T16:13:27.586Z,10.10
2018-09-30T16:15:54.925Z,10.00
2018-09-30T16:18:21.784Z,10.10
2018-09-30T16:20:49.591Z,10.00
2018-09-30T16:23:16.456Z,9.90
2018-09-30T16:25:43.555Z,9.90
2018-09-30T16:28:10.349Z,9.90
2018-09-30T16:30:37.075Z,9.70
2018-09-30T16:33:03.922Z,9.60
2018-09-30T16:35:30.639Z,9.50
2018-09-30T16:37:58.149Z,9.50
2018-09-30T16:40:25.284Z,9.50
2018-09-30T16:42:52.877Z,9.60
2018-09-30T16:45:21.096Z,9.60
2018-09-30T16:47:47.810Z,9.60
2018-09-30T16:50:14.620Z,9.50
2018-09-30T16:52:42.520Z,9.40
2018-09-30T16:55:09.264Z,9.40
2018-09-30T16:57:36.062Z,9.40
2018-09-30T17:00:02.880Z,9.40
2018-09-30T17:02:29.706Z,9.30
2018-09-30T17:04:56.572Z,9.20
2018-09-30T17:07:23.866Z,9.20
2018-09-30T17:09:50.781Z,9.00
2018-09-30T17:12:17.819Z,9.10
2018-09-30T17:14:44.656Z,9.00
2018-09-30T17:17:11.360Z,9.00
2018-09-30T17:19:39.044Z,8.70
2018-09-30T17:22:05.980Z,8.70
2018-09-30T17:24:33.615Z,8.50
2018-09-30T17:27:01.816Z,8.50
2018-09-30T17:29:28.973Z,8.40
2018-09-30T17:31:55.756Z,8.30
2018-09-30T17:34:22.909Z,8.20
2018-09-30T17:36:49.730Z,8.10
2018-09-30T17:39:16.876Z,8.10
2018-09-30T17:41:44.139Z,8.00
2018-09-30T17:44:10.966Z,7.90
2018-09-30T17:46:38.596Z,7.80
2018-09-30T17:49:05.636Z,7.70
2018-09-30T17:51:32.374Z,7.60
2018-09-30T17:53:59.122Z,7.50
2018-09-30T17:56:26.649Z,7.50
2018-09-30T17:58:53.361Z,7.40
2018-09-30T18:01:20.837Z,7.40
2018-09-30T18:03:47.655Z,7.40
2018-09-30T18:06:14.455Z,7.30
2018-09-30T18:08:41.939Z,7.20
2018-09-30T18:11:08.669Z,7.20
2018-09-30T18:13:36.257Z,7.10
2018-09-30T18:16:03.261Z,7.10
2018-09-30T18:18:30.005Z,7.10
2018-09-30T18:20:57.560Z,7.20
2018-09-30T18:23:24.585Z,7.00
2018-09-30T18:25:51.518Z,7.10
2018-09-30T18:28:19.420Z,7.20
2018-09-30T18:30:46.945Z,7.20
2018-09-30T18:33:14.293Z,7.20
2018-09-30T18:35:40.993Z,7.20
2018-09-30T18:38:07.925Z,7.20
2018-09-30T18:40:35.564Z,7.10
2018-09-30T18:43:02.635Z,7.10
2018-09-30T18:45:29.357Z,7.10
2018-09-30T18:47:56.129Z,7.10
2018-09-30T18:50:23.405Z,7.10
2018-09-30T18:52:50.581Z,7.10
2018-09-30T18:55:17.385Z,7.10
2018-09-30T18:57:44.143Z,7.10
2018-09-30T19:00:10.915Z,7.10
2018-09-30T19:02:37.802Z,7.10
2018-09-30T19:05:04.833Z,7.10
2018-09-30T19:07:31.555Z,7.10
2018-09-30T19:09:59.099Z,7.00
2018-09-30T19:12:26.131Z,7.00
2018-09-30T19:14:54.028Z,7.00
2018-09-30T19:17:22.064Z,7.00
2018-09-30T19:19:49.386Z,7.00
2018-09-30T19:22:16.185Z,7.00
2018-09-30T19:24:42.922Z,7.00
2018-09-30T19:27:09.646Z,7.00
2018-09-30T19:29:36.386Z,7.00
2018-09-30T19:32:03.455Z,6.90
2018-09-30T19:34:30.178Z,6.90
2018-09-30T19:36:57.080Z,6.90
2018-09-30T19:39:24.778Z,6.90
2018-09-30T19:41:51.971Z,6.80
2018-09-30T19:44:18.654Z,6.80
2018-09-30T19:46:45.476Z,6.80
2018-09-30T19:49:13.563Z,6.70
2018-09-30T19:51:40.379Z,6.60
2018-09-30T19:54:07.291Z,6.60
2018-09-30T19:56:34.186Z,6.60
2018-09-30T19:59:01.019Z,6.50
2018-09-30T20:01:28.943Z,6.60
2018-09-30T20:03:56.785Z,6.50
2018-09-30T20:06:23.887Z,6.50
2018-09-30T20:08:50.880Z,6.50
2018-09-30T20:11:17.728Z,6.50
2018-09-30T20:13:44.697Z,6.50
2018-09-30T20:16:12.390Z,6.70
2018-09-30T20:18:39.909Z,6.50
2018-09-30T20:21:06.945Z,6.50
2018-09-30T20:23:33.804Z,6.60
2018-09-30T20:26:00.509Z,6.60
2018-09-30T20:28:27.943Z,6.50
2018-09-30T20:30:54.913Z,6.50
2018-09-30T20:33:21.585Z,6.50
2018-09-30T20:35:49.484Z,6.50
2018-09-30T20:38:17.059Z,6.50
2018-09-30T20:40:43.997Z,6.50
2018-09-30T20:43:11.490Z,6.50
2018-09-30T20:45:39.180Z,6.50
2018-09-30T20:48:06.019Z,6.50
2018-09-30T20:50:33.349Z,6.50
2018-09-30T20:53:00.113Z,6.50
2018-09-30T20:55:26.831Z,6.50
2018-09-30T20:57:53.694Z,6.50
2018-09-30T21:00:21.260Z,6.50
2018-09-30T21:02:49.310Z,6.40
2018-09-30T21:05:16.427Z,6.40
2018-09-30T21:07:43.097Z,6.40
2018-09-30T21:10:09.832Z,6.30
2018-09-30T21:12:36.748Z,6.30
2018-09-30T21:15:03.523Z,6.30
2018-09-30T21:17:30.816Z,6.20
2018-09-30T21:19:57.474Z,6.30
2018-09-30T21:22:24.316Z,6.30
2018-09-30T21:24:51.251Z,6.20
2018-09-30T21:27:18.191Z,6.20
2018-09-30T21:29:45.854Z,6.10
2018-09-30T21:32:12.646Z,6.00
2018-09-30T21:34:39.345Z,6.00
2018-09-30T21:37:06.855Z,5.90
2018-09-30T21:39:33.659Z,5.90
2018-09-30T21:42:01.292Z,5.80
2018-09-30T21:44:28.765Z,5.80
2018-09-30T21:46:55.483Z,5.80
2018-09-30T21:49:22.311Z,5.80
2018-09-30T21:51:49.025Z,5.80
2018-09-30T21:54:15.730Z,5.80
2018-09-30T21:56:43.237Z,5.80
2018-09-30T21:59:10.049Z,5.70
2018-09-30T22:01:37.686Z,5.70
2018-09-30T22:04:04.410Z,5.70
2018-09-30T22:18:17.293Z,5.50
2018-09-30T22:20:44.030Z,5.50
2018-09-30T22:23:10.807Z,5.50
2018-09-30T22:25:38.264Z,5.40
2018-09-30T22:28:05.724Z,5.40
2018-09-30T22:30:33.140Z,5.40
2018-09-30T22:32:59.946Z,5.40
2018-09-30T22:35:26.616Z,5.40
2018-09-30T22:37:53.354Z,5.40
2018-09-30T22:40:20.134Z,5.30
2018-09-30T22:42:47.597Z,5.30
2018-09-30T22:45:15.043Z,5.30
2018-09-30T22:47:41.874Z,5.20
2018-09-30T22:50:08.654Z,5.20
2018-09-30T22:52:36.172Z,5.30
2018-09-30T22:55:03.060Z,5.20
2018-09-30T22:57:29.780Z,5.20
2018-09-30T22:59:56.578Z,5.30
2018-09-30T23:02:23.456Z,5.30
2018-09-30T23:04:50.152Z,5.30
2018-09-30T23:07:16.846Z,5.40
2018-09-30T23:09:44.426Z,5.40
2018-09-30T23:12:11.237Z,5.40
2018-09-30T23:14:37.944Z,5.50
2018-09-30T23:17:04.787Z,5.50
2018-09-30T23:19:31.549Z,5.50
2018-09-30T23:21:58.251Z,5.50
2018-09-30T23:24:25.057Z,5.40
2018-09-30T23:26:52.724Z,5.40
2018-09-30T23:29:19.795Z,5.40
2018-09-30T23:31:46.577Z,5.40
2018-09-30T23:34:14.105Z,5.40
2018-09-30T23:36:40.965Z,5.40
2018-09-30T23:39:07.732Z,5.40
2018-09-30T23:41:34.463Z,5.50
2018-09-30T23:44:01.203Z,5.40
2018-09-30T23:46:27.902Z,5.40
2018-09-30T23:48:54.742Z,5.40
2018-09-30T23:51:21.451Z,5.40
2018-09-30T23:53:48.966Z,5.50
2018-09-30T23:56:15.809Z,5.40
2018-09-30T23:58:42.648Z,5.50
